Time;durP1;ratioP1;P1;durP2;ratioP2;P2;SDS_P1;SDS_P2;PMS_P1;PMS_P2;Temp;Humidity;BMP_temperature;BMP_pressure;BME280_temperature;BME280_humidity;BME280_pressure;Samples;Min_cycle;Max_cycle;Signal;HPM_P1;HPM_P2
2023/02/22 00:00:44;;;;;;;175.75;12.23;;;;;;;;;;4975035;28;20023;-58
2023/02/22 00:03:14;;;;;;;167.70;12.50;;;;;;;;;;4975814;28;20026;-57
2023/02/22 00:05:39;;;;;;;196.43;13.35;;;;;;;;;;4975497;28;20034;-56
2023/02/22 00:08:08;;;;;;;195.40;13.23;;;;;;;;;;4977325;28;20048;-57
2023/02/22 00:10:37;;;;;;;177.52;12.68;;;;;;;;;;4974896;28;20429;-56
2023/02/22 00:13:02;;;;;;;220.38;13.68;;;;;;;;;;4960412;28;20512;-56
2023/02/22 00:15:28;;;;;;;182.70;12.77;;;;;;;;;;4976331;28;20707;-55
2023/02/22 00:17:53;;;;;;;194.82;12.13;;;;;;;;;;4976798;28;20023;-56
2023/02/22 00:20:19;;;;;;;201.48;12.77;;;;;;;;;;4974567;28;20049;-57
2023/02/22 00:22:45;;;;;;;190.52;12.23;;;;;;;;;;4979349;28;20107;-56
2023/02/22 00:25:12;;;;;;;265.38;14.07;;;;;;;;;;4975362;28;20401;-58
2023/02/22 00:27:37;;;;;;;221.20;13.23;;;;;;;;;;4976754;28;20467;-57
2023/02/22 00:30:06;;;;;;;164.25;11.38;;;;;;;;;;4978175;28;20573;-60
2023/02/22 00:32:31;;;;;;;205.27;12.02;;;;;;;;;;4976558;28;20730;-58
2023/02/22 00:34:56;;;;;;;158.48;11.38;;;;;;;;;;4976828;28;20026;-60
2023/02/22 00:37:22;;;;;;;178.88;11.32;;;;;;;;;;4976404;28;20046;-59
2023/02/22 00:39:48;;;;;;;180.93;10.70;;;;;;;;;;4978812;28;21309;-59
2023/02/22 00:42:13;;;;;;;186.63;11.68;;;;;;;;;;4976317;28;20039;-57
2023/02/22 00:44:38;;;;;;;207.02;11.57;;;;;;;;;;4977133;28;20073;-57
2023/02/22 00:47:04;;;;;;;175.10;10.57;;;;;;;;;;4976127;28;20046;-56
2023/02/22 00:49:29;;;;;;;174.05;11.23;;;;;;;;;;4979162;28;20300;-58
2023/02/22 00:51:54;;;;;;;204.07;11.47;;;;;;;;;;4976238;28;20232;-57
2023/02/22 00:54:20;;;;;;;181.63;10.85;;;;;;;;;;4976191;28;20317;-59
2023/02/22 00:56:45;;;;;;;228.07;12.25;;;;;;;;;;4974681;28;20184;-57
2023/02/22 00:59:10;;;;;;;197.70;11.40;;;;;;;;;;4976503;28;20027;-59
2023/02/22 01:01:35;;;;;;;142.95;10.48;;;;;;;;;;4978209;28;20062;-58
2023/02/22 01:04:00;;;;;;;210.48;12.10;;;;;;;;;;4976590;28;20387;-60
2023/02/22 01:06:26;;;;;;;138.38;9.57;;;;;;;;;;4970913;28;20485;-58
2023/02/22 01:08:51;;;;;;;180.07;10.85;;;;;;;;;;4978777;28;20058;-60
2023/02/22 01:11:16;;;;;;;207.32;11.63;;;;;;;;;;4974736;28;20057;-58
2023/02/22 01:13:44;;;;;;;183.90;11.45;;;;;;;;;;4976190;28;20561;-60
2023/02/22 01:16:09;;;;;;;158.02;10.40;;;;;;;;;;4976275;28;20361;-59
2023/02/22 01:18:35;;;;;;;131.45;10.15;;;;;;;;;;4980942;28;20275;-59
2023/02/22 01:21:01;;;;;;;168.05;10.98;;;;;;;;;;4975203;28;20030;-59
2023/02/22 01:23:26;;;;;;;188.75;11.30;;;;;;;;;;4977239;28;20038;-59
2023/02/22 01:25:51;;;;;;;161.88;10.20;;;;;;;;;;4975689;28;20064;-57
2023/02/22 01:28:17;;;;;;;188.27;10.23;;;;;;;;;;4977706;28;20417;-57
2023/02/22 01:30:42;;;;;;;211.95;11.52;;;;;;;;;;4961853;28;20030;-57
2023/02/22 01:33:07;;;;;;;167.90;10.48;;;;;;;;;;4976859;28;20504;-57
2023/02/22 01:35:34;;;;;;;196.48;11.20;;;;;;;;;;4977734;28;20026;-58
2023/02/22 01:37:59;;;;;;;192.27;11.43;;;;;;;;;;4975750;28;20023;-57
2023/02/22 01:40:26;;;;;;;175.60;10.50;;;;;;;;;;4975130;28;20077;-58
2023/02/22 01:42:56;;;;;;;181.52;10.38;;;;;;;;;;4976147;28;20677;-57
2023/02/22 01:45:33;;;;;;;168.30;10.07;;;;;;;;;;4974713;28;20115;-59
2023/02/22 01:47:58;;;;;;;213.20;11.52;;;;;;;;;;4977266;28;20091;-58
2023/02/22 01:50:24;;;;;;;173.47;10.43;;;;;;;;;;4978492;28;20030;-57
2023/02/22 01:52:49;;;;;;;211.73;10.35;;;;;;;;;;4977126;28;20282;-60
2023/02/22 01:55:16;;;;;;;199.68;10.25;;;;;;;;;;4975870;28;20015;-59
2023/02/22 01:57:41;;;;;;;177.05;9.38;;;;;;;;;;4976422;28;20023;-59
2023/02/22 02:00:11;;;;;;;164.77;8.35;;;;;;;;;;4975816;28;20026;-57
2023/02/22 02:02:40;;;;;;;176.23;8.00;;;;;;;;;;4979356;28;20533;-57
2023/02/22 02:05:07;;;;;;;195.75;9.90;;;;;;;;;;4977710;28;20069;-56
2023/02/22 02:07:33;;;;;;;190.57;8.68;;;;;;;;;;4976836;28;20044;-58
2023/02/22 02:10:03;;;;;;;154.07;8.02;;;;;;;;;;4979181;28;20026;-57
2023/02/22 02:12:30;;;;;;;203.38;9.13;;;;;;;;;;4981530;28;20065;-60
2023/02/22 02:15:14;;;;;;;157.25;7.68;;;;;;;;;;4983106;28;20033;-59
2023/02/22 02:17:39;;;;;;;184.85;8.52;;;;;;;;;;4978931;28;20062;-55
2023/02/22 02:20:10;;;;;;;151.48;7.15;;;;;;;;;;4977307;28;20681;-59
2023/02/22 02:22:40;;;;;;;201.32;8.07;;;;;;;;;;4977066;28;20065;-57
2023/02/22 02:25:33;;;;;;;168.75;7.07;;;;;;;;;;4977077;28;20037;-58
2023/02/22 02:28:17;;;;;;;179.60;8.50;;;;;;;;;;4977513;28;20514;-57
2023/02/22 02:30:57;;;;;;;174.45;8.02;;;;;;;;;;4977525;28;20038;-57
2023/02/22 02:33:31;;;;;;;149.82;7.10;;;;;;;;;;4979515;28;20076;-58
2023/02/22 02:36:07;;;;;;;181.52;7.55;;;;;;;;;;4978996;28;20088;-59
2023/02/22 02:38:35;;;;;;;183.65;7.70;;;;;;;;;;4979041;28;20033;-57
2023/02/22 02:41:16;;;;;;;212.77;8.02;;;;;;;;;;4977557;28;20122;-57
2023/02/22 02:43:41;;;;;;;184.30;8.10;;;;;;;;;;4976337;28;20045;-60
2023/02/22 02:46:13;;;;;;;211.45;8.82;;;;;;;;;;4977771;28;20026;-57
2023/02/22 02:48:41;;;;;;;155.27;7.85;;;;;;;;;;4980642;28;20532;-56
2023/02/22 02:51:08;;;;;;;160.27;7.75;;;;;;;;;;4978454;28;20038;-59
2023/02/22 02:53:35;;;;;;;162.60;8.18;;;;;;;;;;4976463;28;20061;-57
2023/02/22 02:56:00;;;;;;;135.75;7.50;;;;;;;;;;4976476;28;20062;-60
2023/02/22 02:58:26;;;;;;;174.60;8.15;;;;;;;;;;4977269;28;20098;-59
2023/02/22 03:00:54;;;;;;;181.00;7.88;;;;;;;;;;4979069;28;20125;-57
2023/02/22 03:03:25;;;;;;;160.18;8.23;;;;;;;;;;4977585;28;20116;-57
2023/02/22 03:06:09;;;;;;;178.63;9.17;;;;;;;;;;4976558;28;20038;-60
2023/02/22 03:08:49;;;;;;;209.98;9.02;;;;;;;;;;4981136;28;20327;-58
2023/02/22 03:11:14;;;;;;;187.85;9.20;;;;;;;;;;4978904;28;20046;-57
2023/02/22 03:13:48;;;;;;;211.02;9.43;;;;;;;;;;4980231;28;20044;-57
2023/02/22 03:16:23;;;;;;;176.02;8.25;;;;;;;;;;4977789;28;20033;-59
2023/02/22 03:19:07;;;;;;;203.15;9.63;;;;;;;;;;4977663;28;20023;-59
2023/02/22 03:21:38;;;;;;;154.02;7.97;;;;;;;;;;4976684;28;20899;-59
2023/02/22 03:24:03;;;;;;;188.30;9.20;;;;;;;;;;4977472;28;20774;-58
2023/02/22 03:26:34;;;;;;;157.20;8.10;;;;;;;;;;4980390;28;20833;-58
2023/02/22 03:29:03;;;;;;;223.73;9.82;;;;;;;;;;4979167;28;20673;-58
2023/02/22 03:31:32;;;;;;;140.98;7.55;;;;;;;;;;4977746;28;20041;-57
2023/02/22 03:34:00;;;;;;;147.30;8.07;;;;;;;;;;4975803;28;20052;-59
2023/02/22 03:36:28;;;;;;;153.20;7.90;;;;;;;;;;4979269;28;20038;-58
2023/02/22 03:38:55;;;;;;;172.05;8.30;;;;;;;;;;4979082;28;20032;-59
2023/02/22 03:41:23;;;;;;;159.93;8.25;;;;;;;;;;4974755;28;20050;-58
2023/02/22 03:43:53;;;;;;;205.85;8.73;;;;;;;;;;4980540;28;20018;-56
2023/02/22 03:46:18;;;;;;;179.45;8.27;;;;;;;;;;4940178;28;1131329;-58
2023/02/22 03:48:44;;;;;;;176.95;8.10;;;;;;;;;;4977440;28;20473;-56
2023/02/22 03:51:13;;;;;;;186.07;8.30;;;;;;;;;;4978468;28;20521;-57
2023/02/22 03:53:39;;;;;;;188.38;8.07;;;;;;;;;;4979212;28;20030;-57
2023/02/22 03:56:07;;;;;;;165.00;7.40;;;;;;;;;;4980112;28;20030;-56
2023/02/22 03:58:33;;;;;;;183.65;8.13;;;;;;;;;;4976490;28;20022;-58
2023/02/22 04:00:58;;;;;;;172.10;8.30;;;;;;;;;;4978035;28;20486;-57
2023/02/22 04:03:24;;;;;;;167.43;7.88;;;;;;;;;;4982614;28;20027;-58
2023/02/22 04:05:49;;;;;;;201.90;8.60;;;;;;;;;;4981661;28;20031;-57
2023/02/22 04:08:14;;;;;;;148.32;7.25;;;;;;;;;;4978498;28;20076;-58
2023/02/22 04:10:40;;;;;;;160.43;7.75;;;;;;;;;;4974272;28;20120;-56
2023/02/22 04:13:09;;;;;;;210.63;8.55;;;;;;;;;;4980665;28;20285;-58
2023/02/22 04:15:34;;;;;;;179.32;8.07;;;;;;;;;;4977138;28;20030;-57
2023/02/22 04:17:59;;;;;;;198.45;8.65;;;;;;;;;;4977022;28;20037;-59
2023/02/22 04:20:24;;;;;;;169.30;7.07;;;;;;;;;;4980483;28;20023;-56
2023/02/22 04:22:54;;;;;;;168.68;8.05;;;;;;;;;;4961888;28;20023;-60
2023/02/22 04:25:19;;;;;;;189.38;8.20;;;;;;;;;;4975743;28;20124;-59
2023/02/22 04:27:44;;;;;;;191.48;8.30;;;;;;;;;;4977129;28;20033;-58
2023/02/22 04:30:10;;;;;;;173.27;7.97;;;;;;;;;;4977818;28;20400;-58
2023/02/22 04:32:35;;;;;;;166.18;7.63;;;;;;;;;;4977415;28;20490;-59
2023/02/22 04:35:01;;;;;;;169.10;8.15;;;;;;;;;;4976449;28;20027;-57
2023/02/22 04:37:26;;;;;;;192.57;8.88;;;;;;;;;;4978296;28;20169;-58
2023/02/22 04:39:51;;;;;;;156.95;7.95;;;;;;;;;;4976685;28;20081;-57
2023/02/22 04:42:17;;;;;;;138.40;7.28;;;;;;;;;;4979212;28;20034;-58
2023/02/22 04:44:42;;;;;;;242.10;9.30;;;;;;;;;;4976723;28;20034;-57
2023/02/22 04:47:07;;;;;;;175.68;8.52;;;;;;;;;;4976230;28;20042;-60
2023/02/22 04:49:32;;;;;;;184.37;7.97;;;;;;;;;;4973219;28;20456;-57
2023/02/22 04:51:57;;;;;;;171.95;8.88;;;;;;;;;;4973287;28;20817;-60
2023/02/22 04:54:23;;;;;;;165.38;8.00;;;;;;;;;;4979199;28;20477;-60
2023/02/22 04:56:48;;;;;;;234.65;10.07;;;;;;;;;;4975596;28;20449;-58
2023/02/22 04:59:13;;;;;;;157.13;8.23;;;;;;;;;;4977577;28;20022;-59
2023/02/22 05:01:39;;;;;;;172.93;8.60;;;;;;;;;;4978322;28;20048;-57
2023/02/22 05:04:05;;;;;;;233.93;9.18;;;;;;;;;;4975188;28;20125;-57
2023/02/22 05:06:30;;;;;;;140.65;6.80;;;;;;;;;;4976409;28;20038;-59
2023/02/22 05:08:55;;;;;;;167.82;8.18;;;;;;;;;;4981142;28;20014;-55
2023/02/22 05:11:21;;;;;;;185.05;8.13;;;;;;;;;;4975983;28;20042;-55
2023/02/22 05:13:46;;;;;;;192.00;8.95;;;;;;;;;;4972297;28;20019;-54
2023/02/22 05:16:12;;;;;;;203.65;8.57;;;;;;;;;;4977014;28;20039;-54
2023/02/22 05:18:37;;;;;;;150.10;7.75;;;;;;;;;;4980658;28;20537;-55
2023/02/22 05:21:02;;;;;;;157.20;7.67;;;;;;;;;;4977703;28;20140;-54
2023/02/22 05:23:27;;;;;;;186.45;8.80;;;;;;;;;;4978235;28;20832;-54
2023/02/22 05:25:53;;;;;;;172.50;8.45;;;;;;;;;;4975919;28;20402;-55
2023/02/22 05:28:18;;;;;;;180.05;7.70;;;;;;;;;;4974650;28;20988;-56
2023/02/22 05:30:43;;;;;;;201.65;9.15;;;;;;;;;;4974634;28;20374;-58
2023/02/22 05:33:09;;;;;;;155.15;7.30;;;;;;;;;;4975159;28;20573;-60
2023/02/22 05:35:35;;;;;;;210.95;8.50;;;;;;;;;;4973705;28;20035;-59
2023/02/22 05:38:02;;;;;;;172.52;8.18;;;;;;;;;;4979924;28;20451;-57
2023/02/22 05:40:28;;;;;;;158.40;8.18;;;;;;;;;;4974679;28;20748;-60
2023/02/22 05:42:55;;;;;;;157.15;7.55;;;;;;;;;;4975481;28;20026;-57
2023/02/22 05:45:22;;;;;;;172.95;8.23;;;;;;;;;;4976638;28;20541;-58
2023/02/22 05:47:47;;;;;;;221.57;9.00;;;;;;;;;;4977002;28;20493;-58
2023/02/22 05:50:14;;;;;;;170.60;8.93;;;;;;;;;;4975018;28;20033;-57
2023/02/22 05:52:39;;;;;;;162.13;8.07;;;;;;;;;;4976759;28;20602;-59
2023/02/22 05:55:05;;;;;;;222.25;9.82;;;;;;;;;;4975145;28;20018;-60
2023/02/22 05:57:31;;;;;;;165.20;9.13;;;;;;;;;;4975325;28;20025;-60
2023/02/22 05:59:56;;;;;;;181.45;9.45;;;;;;;;;;4975571;28;20026;-59
2023/02/22 06:02:21;;;;;;;196.50;9.40;;;;;;;;;;4977518;28;20958;-57
2023/02/22 06:04:46;;;;;;;170.13;8.80;;;;;;;;;;4975763;28;20065;-59
2023/02/22 06:07:12;;;;;;;207.88;9.90;;;;;;;;;;4979329;28;20043;-59
2023/02/22 06:09:37;;;;;;;234.23;11.18;;;;;;;;;;4975813;28;20042;-59
2023/02/22 06:12:03;;;;;;;183.32;8.98;;;;;;;;;;4975040;28;20105;-59
2023/02/22 06:14:28;;;;;;;218.40;10.50;;;;;;;;;;4975476;28;20019;-60
2023/02/22 06:16:54;;;;;;;175.23;9.00;;;;;;;;;;4977120;28;20263;-61
2023/02/22 06:19:20;;;;;;;177.27;9.00;;;;;;;;;;4973897;28;20541;-60
2023/02/22 06:21:49;;;;;;;176.98;9.57;;;;;;;;;;4977128;28;20094;-60
2023/02/22 06:24:14;;;;;;;206.00;10.27;;;;;;;;;;4976970;28;20025;-57
2023/02/22 06:26:39;;;;;;;251.25;11.75;;;;;;;;;;4976295;28;20038;-56
2023/02/22 06:29:04;;;;;;;153.60;8.63;;;;;;;;;;4977633;28;20853;-56
2023/02/22 06:31:30;;;;;;;153.73;8.65;;;;;;;;;;4975127;28;20274;-58
2023/02/22 06:33:55;;;;;;;195.00;9.70;;;;;;;;;;4975707;28;20027;-56
2023/02/22 06:36:21;;;;;;;191.47;9.60;;;;;;;;;;4974686;28;20126;-56
2023/02/22 06:38:46;;;;;;;189.35;9.95;;;;;;;;;;4975230;28;20250;-57
2023/02/22 06:41:11;;;;;;;167.93;9.13;;;;;;;;;;4976848;28;20122;-60
2023/02/22 06:43:36;;;;;;;128.93;8.02;;;;;;;;;;4977059;28;20246;-57
2023/02/22 06:46:01;;;;;;;214.18;10.55;;;;;;;;;;4974845;28;20079;-56
2023/02/22 06:48:27;;;;;;;177.23;10.43;;;;;;;;;;4972507;28;20369;-55
2023/02/22 06:50:52;;;;;;;192.38;9.88;;;;;;;;;;4978014;28;20100;-58
2023/02/22 06:53:17;;;;;;;217.30;9.48;;;;;;;;;;4977395;28;20026;-57
2023/02/22 06:55:43;;;;;;;169.15;9.68;;;;;;;;;;4977057;28;20034;-59
2023/02/22 06:58:08;;;;;;;183.30;10.93;;;;;;;;;;4979306;28;20027;-58
2023/02/22 07:00:33;;;;;;;168.05;10.13;;;;;;;;;;4978413;28;20811;-58
2023/02/22 07:02:59;;;;;;;164.73;9.85;;;;;;;;;;4979912;28;20034;-57
2023/02/22 07:05:24;;;;;;;211.48;10.38;;;;;;;;;;4979064;28;20490;-58
2023/02/22 07:07:51;;;;;;;184.02;9.98;;;;;;;;;;4979620;28;20081;-60
2023/02/22 07:10:22;;;;;;;206.77;11.43;;;;;;;;;;4978796;28;20045;-56
2023/02/22 07:12:47;;;;;;;192.63;10.30;;;;;;;;;;4978941;28;20032;-57
2023/02/22 07:15:13;;;;;;;178.60;10.57;;;;;;;;;;4982083;28;20018;-57
2023/02/22 07:17:40;;;;;;;206.25;11.80;;;;;;;;;;4976365;28;20100;-59
2023/02/22 07:20:05;;;;;;;170.73;10.95;;;;;;;;;;4982007;28;20045;-58
2023/02/22 07:22:30;;;;;;;178.85;10.57;;;;;;;;;;4976299;28;20416;-60
2023/02/22 07:24:56;;;;;;;223.93;12.63;;;;;;;;;;4977235;28;20038;-57
2023/02/22 07:27:21;;;;;;;138.00;9.67;;;;;;;;;;4977112;28;20269;-59
2023/02/22 07:29:46;;;;;;;211.43;12.93;;;;;;;;;;4977134;28;20265;-56
2023/02/22 07:32:11;;;;;;;156.88;10.80;;;;;;;;;;4975296;28;20049;-57
2023/02/22 07:34:37;;;;;;;187.25;11.93;;;;;;;;;;4978380;28;20489;-58
2023/02/22 07:37:02;;;;;;;212.85;11.63;;;;;;;;;;4977662;28;20402;-58
2023/02/22 07:39:27;;;;;;;152.93;8.85;;;;;;;;;;4984025;28;20453;-57
2023/02/22 07:41:52;;;;;;;160.77;11.13;;;;;;;;;;4962006;28;20096;-59
2023/02/22 07:44:18;;;;;;;215.15;11.88;;;;;;;;;;4977189;28;20022;-60
2023/02/22 07:46:47;;;;;;;278.50;14.37;;;;;;;;;;4975282;28;20050;-58
2023/02/22 07:49:12;;;;;;;192.27;12.55;;;;;;;;;;4977622;28;20355;-59
2023/02/22 07:51:38;;;;;;;172.23;11.57;;;;;;;;;;4974448;28;20042;-60
2023/02/22 07:54:03;;;;;;;158.23;11.55;;;;;;;;;;4978307;28;20023;-60
2023/02/22 07:56:28;;;;;;;191.98;10.93;;;;;;;;;;4977749;28;20045;-58
2023/02/22 07:58:53;;;;;;;174.03;11.27;;;;;;;;;;4980151;28;20026;-60
2023/02/22 08:01:19;;;;;;;147.83;7.57;;;;;;;;;;4981337;28;20257;-60
2023/02/22 08:03:46;;;;;;;171.88;8.93;;;;;;;;;;4974856;28;20264;-59
2023/02/22 08:06:11;;;;;;;134.38;7.07;;;;;;;;;;4975299;28;20042;-58
2023/02/22 08:08:37;;;;;;;188.35;8.95;;;;;;;;;;4979768;28;20022;-60
2023/02/22 08:11:02;;;;;;;149.77;6.72;;;;;;;;;;4978966;28;20065;-59
2023/02/22 08:13:27;;;;;;;161.13;8.93;;;;;;;;;;4974256;28;20508;-61
2023/02/22 08:15:52;;;;;;;185.30;9.07;;;;;;;;;;4976087;28;20599;-61
2023/02/22 08:18:18;;;;;;;190.82;9.65;;;;;;;;;;4973654;28;20022;-60
2023/02/22 08:20:44;;;;;;;168.88;8.52;;;;;;;;;;4980867;28;20034;-58
2023/02/22 08:23:10;;;;;;;217.18;9.63;;;;;;;;;;4976198;28;20022;-59
2023/02/22 08:25:36;;;;;;;160.80;9.63;;;;;;;;;;4976791;28;20034;-62
2023/02/22 08:28:03;;;;;;;172.77;8.95;;;;;;;;;;4977735;28;20022;-58
2023/02/22 08:30:29;;;;;;;188.30;10.88;;;;;;;;;;4974025;28;20022;-56
2023/02/22 08:32:55;;;;;;;181.82;9.85;;;;;;;;;;4977815;28;20571;-57
2023/02/22 08:35:21;;;;;;;191.75;10.18;;;;;;;;;;4976526;28;20019;-57
2023/02/22 08:37:51;;;;;;;171.55;10.85;;;;;;;;;;4978015;28;20013;-58
2023/02/22 08:40:17;;;;;;;158.02;10.38;;;;;;;;;;4975855;28;20104;-58
2023/02/22 08:42:43;;;;;;;182.07;9.65;;;;;;;;;;4974333;28;20430;-56
2023/02/22 08:45:09;;;;;;;171.38;9.57;;;;;;;;;;4977423;28;20349;-57
2023/02/22 08:47:34;;;;;;;155.77;8.18;;;;;;;;;;4979990;28;20042;-58
2023/02/22 08:49:59;;;;;;;151.20;9.05;;;;;;;;;;4976529;28;20404;-56
2023/02/22 08:52:24;;;;;;;172.97;10.60;;;;;;;;;;4976352;28;20089;-58
2023/02/22 08:54:50;;;;;;;220.10;11.83;;;;;;;;;;4978176;28;20266;-57
2023/02/22 08:57:15;;;;;;;165.33;7.80;;;;;;;;;;4973157;28;20266;-59
2023/02/22 08:59:41;;;;;;;198.63;11.80;;;;;;;;;;4977721;28;20345;-58
2023/02/22 09:02:13;;;;;;;158.00;9.65;;;;;;;;;;4978727;28;20096;-61
2023/02/22 09:04:38;;;;;;;181.32;10.77;;;;;;;;;;4976271;28;20117;-58
2023/02/22 09:07:03;;;;;;;191.70;11.02;;;;;;;;;;4975543;28;20156;-59
2023/02/22 09:09:28;;;;;;;158.83;10.23;;;;;;;;;;4974737;28;20022;-56
2023/02/22 09:11:54;;;;;;;163.53;9.90;;;;;;;;;;4976853;28;20286;-56
2023/02/22 09:14:19;;;;;;;213.97;11.40;;;;;;;;;;4973649;28;20261;-55
2023/02/22 09:16:44;;;;;;;183.85;11.13;;;;;;;;;;4978473;28;20676;-61
2023/02/22 09:19:09;;;;;;;164.55;9.38;;;;;;;;;;4979609;28;20466;-56
2023/02/22 09:21:35;;;;;;;153.10;9.43;;;;;;;;;;4975481;28;20117;-57
2023/02/22 09:24:07;;;;;;;147.43;10.30;;;;;;;;;;4975499;28;20297;-57
2023/02/22 09:26:32;;;;;;;193.10;11.35;;;;;;;;;;4974938;28;20284;-59
2023/02/22 09:28:57;;;;;;;151.80;10.18;;;;;;;;;;4976936;28;20386;-57
2023/02/22 09:31:23;;;;;;;147.67;8.63;;;;;;;;;;4972166;28;20597;-59
2023/02/22 09:33:48;;;;;;;159.45;10.02;;;;;;;;;;4973636;28;20817;-57
2023/02/22 09:36:13;;;;;;;156.50;9.53;;;;;;;;;;4976196;28;20512;-59
2023/02/22 09:38:38;;;;;;;186.17;10.60;;;;;;;;;;4977071;28;20634;-60
2023/02/22 09:41:06;;;;;;;152.80;9.60;;;;;;;;;;4976783;28;20295;-57
2023/02/22 09:43:32;;;;;;;149.40;9.05;;;;;;;;;;4980039;28;20681;-58
2023/02/22 09:46:19;;;;;;;201.63;11.18;;;;;;;;;;4962850;28;20031;-59
2023/02/22 09:48:50;;;;;;;169.32;9.60;;;;;;;;;;4977097;28;20254;-57
2023/02/22 09:51:16;;;;;;;172.90;10.13;;;;;;;;;;4976694;28;20034;-57
2023/02/22 09:53:44;;;;;;;179.45;10.38;;;;;;;;;;4963350;28;20445;-60
2023/02/22 09:56:10;;;;;;;155.27;9.60;;;;;;;;;;4978422;28;20132;-57
2023/02/22 09:58:41;;;;;;;158.02;9.43;;;;;;;;;;4977275;28;20025;-57
2023/02/22 10:01:13;;;;;;;180.18;10.52;;;;;;;;;;4974057;28;20447;-58
2023/02/22 10:03:49;;;;;;;127.93;9.52;;;;;;;;;;4975725;28;20106;-60
2023/02/22 10:06:20;;;;;;;207.27;10.27;;;;;;;;;;4973297;28;20034;-56
2023/02/22 10:08:45;;;;;;;132.13;8.80;;;;;;;;;;4975698;28;20157;-58
2023/02/22 10:11:23;;;;;;;150.48;9.43;;;;;;;;;;4973455;28;20034;-56
2023/02/22 10:14:00;;;;;;;181.13;10.77;;;;;;;;;;4976397;28;20027;-59
2023/02/22 10:16:37;;;;;;;169.40;9.93;;;;;;;;;;4976495;28;20042;-56
2023/02/22 10:19:09;;;;;;;176.55;10.38;;;;;;;;;;4975249;28;20525;-61
2023/02/22 10:21:35;;;;;;;196.27;10.38;;;;;;;;;;4972931;28;20138;-58
2023/02/22 10:24:12;;;;;;;163.30;9.00;;;;;;;;;;4975390;28;20018;-58
2023/02/22 10:26:40;;;;;;;183.60;10.18;;;;;;;;;;4973544;28;20556;-59
2023/02/22 10:29:13;;;;;;;134.40;9.15;;;;;;;;;;4977705;28;20354;-58
2023/02/22 10:31:42;;;;;;;181.23;10.10;;;;;;;;;;4979424;28;20030;-60
2023/02/22 10:34:22;;;;;;;163.75;9.90;;;;;;;;;;4977823;28;20022;-58
2023/02/22 10:36:49;;;;;;;198.55;10.55;;;;;;;;;;4981924;28;20034;-60
2023/02/22 10:39:17;;;;;;;142.18;8.25;;;;;;;;;;4981363;28;20022;-58
2023/02/22 10:41:49;;;;;;;147.68;9.23;;;;;;;;;;4980839;28;20104;-59
2023/02/22 10:44:15;;;;;;;;;;;;;;;;;;4980907;28;20844;-60
2023/02/22 10:46:41;;;;;;;199.80;10.32;;;;;;;;;;4978747;28;20013;-59
2023/02/22 10:49:07;;;;;;;220.98;10.75;;;;;;;;;;4981816;28;20104;-60
2023/02/22 10:51:32;;;;;;;134.65;8.88;;;;;;;;;;4977504;28;20167;-60
2023/02/22 10:54:18;;;;;;;152.98;9.10;;;;;;;;;;4978641;28;20028;-58
2023/02/22 10:56:48;;;;;;;190.95;10.02;;;;;;;;;;4978289;28;20035;-59
2023/02/22 10:59:25;;;;;;;149.05;9.50;;;;;;;;;;4977152;28;20582;-61
2023/02/22 11:01:51;;;;;;;158.20;9.38;;;;;;;;;;4979377;28;20040;-58
2023/02/22 11:04:23;;;;;;;154.80;9.02;;;;;;;;;;4977198;28;20025;-57
2023/02/22 11:06:48;;;;;;;;;;;;;;;;;;4981471;28;20605;-59
2023/02/22 11:09:16;;;;;;;175.90;9.40;;;;;;;;;;4980246;28;19910;-60
2023/02/22 11:11:43;;;;;;;184.70;9.35;;;;;;;;;;4978970;28;20031;-58
2023/02/22 11:14:09;;;;;;;155.75;9.05;;;;;;;;;;4978277;28;20030;-57
2023/02/22 11:16:42;;;;;;;167.02;9.18;;;;;;;;;;4976998;28;20134;-58
2023/02/22 11:19:10;;;;;;;144.80;8.50;;;;;;;;;;4977691;28;20055;-60
2023/02/22 11:21:36;;;;;;;151.85;8.77;;;;;;;;;;4981306;28;20034;-60
2023/02/22 11:24:09;;;;;;;146.52;7.85;;;;;;;;;;4979703;28;20028;-62
2023/02/22 11:26:42;;;;;;;138.95;7.95;;;;;;;;;;4979292;28;20118;-58
2023/02/22 11:29:12;;;;;;;118.95;7.50;;;;;;;;;;4979559;28;20057;-59
2023/02/22 11:31:41;;;;;;;142.00;8.02;;;;;;;;;;4976534;28;20031;-59
2023/02/22 11:34:23;;;;;;;182.93;9.32;;;;;;;;;;4979655;28;20029;-56
2023/02/22 11:36:50;;;;;;;150.85;8.23;;;;;;;;;;4979262;28;20026;-59
2023/02/22 11:39:21;;;;;;;228.68;10.75;;;;;;;;;;4978242;28;20018;-56
2023/02/22 11:41:48;;;;;;;161.88;9.18;;;;;;;;;;4977588;28;20116;-59
2023/02/22 11:44:24;;;;;;;173.40;9.57;;;;;;;;;;4977866;28;20657;-57
2023/02/22 11:46:50;;;;;;;189.10;10.35;;;;;;;;;;4976630;28;20695;-59
2023/02/22 11:49:16;;;;;;;164.48;8.95;;;;;;;;;;4977094;28;20017;-58
2023/02/22 11:51:44;;;;;;;167.18;8.68;;;;;;;;;;4979748;28;20469;-58
2023/02/22 11:54:30;;;;;;;171.90;7.22;;;;;;;;;;4977447;28;20023;-59
2023/02/22 11:57:15;;;;;;;145.65;7.55;;;;;;;;;;4979523;28;20592;-59
2023/02/22 11:59:59;;;;;;;189.65;9.27;;;;;;;;;;4977994;28;20334;-58
2023/02/22 12:02:30;;;;;;;153.63;8.18;;;;;;;;;;4975549;28;21274;-60
2023/02/22 12:05:01;;;;;;;180.00;8.18;;;;;;;;;;4972757;28;20567;-60
2023/02/22 12:07:31;;;;;;;164.20;7.97;;;;;;;;;;4973601;28;20051;-58
2023/02/22 12:10:04;;;;;;;167.60;9.10;;;;;;;;;;4976693;28;20075;-57
2023/02/22 12:12:32;;;;;;;166.27;8.30;;;;;;;;;;4976960;28;20948;-59
2023/02/22 12:15:12;;;;;;;213.73;10.38;;;;;;;;;;4978819;28;20049;-59
2023/02/22 12:17:48;;;;;;;162.00;8.07;;;;;;;;;;4975723;28;20511;-58
2023/02/22 12:20:13;;;;;;;153.48;7.93;;;;;;;;;;4977301;28;20249;-56
2023/02/22 12:22:46;;;;;;;165.07;7.90;;;;;;;;;;4965723;28;20044;-58
2023/02/22 12:25:14;;;;;;;171.35;7.97;;;;;;;;;;4975854;28;20709;-60
2023/02/22 12:27:50;;;;;;;165.52;7.75;;;;;;;;;;4977032;28;20058;-60
2023/02/22 12:30:24;;;;;;;172.45;7.90;;;;;;;;;;4977791;28;20034;-58
2023/02/22 12:32:51;;;;;;;190.55;8.10;;;;;;;;;;4982777;28;20783;-57
2023/02/22 12:35:27;;;;;;;191.70;8.23;;;;;;;;;;4975445;28;20032;-58
2023/02/22 12:38:00;;;;;;;159.82;7.35;;;;;;;;;;4976447;28;20021;-59
2023/02/22 12:40:41;;;;;;;184.40;7.78;;;;;;;;;;4976337;28;20710;-57
2023/02/22 12:43:12;;;;;;;134.45;7.00;;;;;;;;;;4977451;28;20125;-57
2023/02/22 12:45:40;;;;;;;149.02;7.18;;;;;;;;;;4976221;28;20057;-60
2023/02/22 12:48:17;;;;;;;156.07;6.97;;;;;;;;;;4980171;28;20064;-57
2023/02/22 12:50:43;;;;;;;180.27;7.72;;;;;;;;;;4976750;28;20134;-59
2023/02/22 12:53:08;;;;;;;169.35;7.55;;;;;;;;;;4960233;28;20149;-60
2023/02/22 12:55:50;;;;;;;161.87;7.10;;;;;;;;;;4974953;28;20053;-60
2023/02/22 12:58:25;;;;;;;122.00;6.25;;;;;;;;;;4975533;28;20315;-58
2023/02/22 13:00:51;;;;;;;157.15;7.10;;;;;;;;;;4972069;28;20027;-60
2023/02/22 13:03:24;;;;;;;141.53;6.40;;;;;;;;;;4977410;28;20089;-58
2023/02/22 13:06:05;;;;;;;178.27;7.55;;;;;;;;;;4979410;28;20278;-58
2023/02/22 13:08:35;;;;;;;159.85;7.18;;;;;;;;;;4976800;28;20409;-59
2023/02/22 13:11:09;;;;;;;172.57;7.43;;;;;;;;;;4978783;28;20038;-58
2023/02/22 13:13:40;;;;;;;145.85;6.30;;;;;;;;;;4976264;28;20026;-58
2023/02/22 13:16:06;;;;;;;181.40;7.43;;;;;;;;;;4975113;28;20027;-57
2023/02/22 13:18:31;;;;;;;140.68;6.35;;;;;;;;;;4979443;28;20732;-58
2023/02/22 13:21:03;;;;;;;144.53;6.60;;;;;;;;;;4975600;28;20598;-57
2023/02/22 13:23:28;;;;;;;149.23;6.50;;;;;;;;;;4977173;28;20666;-60
2023/02/22 13:26:00;;;;;;;128.70;5.97;;;;;;;;;;4974386;28;20034;-59
2023/02/22 13:28:27;;;;;;;152.05;6.00;;;;;;;;;;4977603;28;20452;-58
2023/02/22 13:30:53;;;;;;;144.55;6.45;;;;;;;;;;4975219;28;20438;-57
2023/02/22 13:33:24;;;;;;;143.70;6.13;;;;;;;;;;4973620;28;20742;-58
2023/02/22 13:35:49;;;;;;;179.60;7.10;;;;;;;;;;4975973;28;20387;-57
2023/02/22 13:38:24;;;;;;;134.00;6.50;;;;;;;;;;4977475;28;20021;-59
2023/02/22 13:40:55;;;;;;;177.65;7.45;;;;;;;;;;4977053;28;20042;-58
2023/02/22 13:43:21;;;;;;;149.73;6.78;;;;;;;;;;4979285;28;20046;-57
2023/02/22 13:45:59;;;;;;;169.13;7.17;;;;;;;;;;4981780;28;20078;-57
2023/02/22 13:48:43;;;;;;;137.95;6.03;;;;;;;;;;4977122;28;20072;-58
2023/02/22 13:51:21;;;;;;;144.00;6.38;;;;;;;;;;4975091;28;20089;-58
2023/02/22 13:53:55;;;;;;;144.43;5.93;;;;;;;;;;4979683;28;20131;-62
2023/02/22 13:56:22;;;;;;;168.48;7.05;;;;;;;;;;4978812;28;20088;-58
2023/02/22 13:58:49;;;;;;;145.07;6.40;;;;;;;;;;4976430;28;20105;-59
2023/02/22 14:01:33;;;;;;;178.95;7.13;;;;;;;;;;4976653;28;20034;-60
2023/02/22 14:04:19;;;;;;;168.25;6.72;;;;;;;;;;4977467;28;20089;-57
2023/02/22 14:06:44;;;;;;;171.68;6.95;;;;;;;;;;4964917;28;20141;-61
2023/02/22 14:09:17;;;;;;;193.48;7.80;;;;;;;;;;4977544;28;20961;-59
2023/02/22 14:11:43;;;;;;;159.13;7.53;;;;;;;;;;4980583;28;20046;-59
2023/02/22 14:14:09;;;;;;;154.45;7.53;;;;;;;;;;4976533;28;20416;-59
2023/02/22 14:16:36;;;;;;;183.25;8.25;;;;;;;;;;4980327;28;20459;-56
2023/02/22 14:19:05;;;;;;;157.50;7.20;;;;;;;;;;4980660;28;20453;-60